Time;durP1;ratioP1;P1;durP2;ratioP2;P2;SDS_P1;SDS_P2;PMS_P1;PMS_P2;Temp;Humidity;BMP_temperature;BMP_pressure;BME280_temperature;BME280_humidity;BME280_pressure;Samples;Min_cycle;Max_cycle;Signal;HPM_P1;HPM_P2
2021/03/06 00:02:05;;;;;;;10.13;6.67;;;;;;;;;;767915;181;618175;-70
2021/03/06 00:04:31;;;;;;;11.93;6.63;;;;;;;;;;762272;182;621714;-69
2021/03/06 00:06:57;;;;;;;12.87;7.73;;;;;;;;;;767289;183;616620;-69
2021/03/06 00:09:23;;;;;;;15.93;8.50;;;;;;;;;;761499;183;621868;-69
2021/03/06 00:11:49;;;;;;;11.13;7.10;;;;;;;;;;766344;183;624586;-69
2021/03/06 00:14:14;;;;;;;15.50;9.07;;;;;;;;;;770916;183;614554;-70
2021/03/06 00:16:40;;;;;;;10.93;7.17;;;;;;;;;;763709;183;626358;-69
2021/03/06 00:19:06;;;;;;;14.20;8.33;;;;;;;;;;767666;183;636156;-69
2021/03/06 00:21:32;;;;;;;13.60;7.77;;;;;;;;;;770077;183;848094;-69
2021/03/06 00:23:58;;;;;;;10.83;7.33;;;;;;;;;;765278;183;631510;-69
2021/03/06 00:26:24;;;;;;;18.43;8.10;;;;;;;;;;762511;183;628762;-70
2021/03/06 00:28:49;;;;;;;11.53;7.60;;;;;;;;;;761426;183;622784;-70
2021/03/06 00:31:15;;;;;;;12.67;8.27;;;;;;;;;;759555;183;634500;-70
2021/03/06 00:33:41;;;;;;;15.70;7.87;;;;;;;;;;767660;183;624455;-70
2021/03/06 00:36:07;;;;;;;11.70;6.27;;;;;;;;;;763484;183;610065;-69
2021/03/06 00:38:33;;;;;;;10.73;7.17;;;;;;;;;;765141;183;616842;-70
2021/03/06 00:40:59;;;;;;;11.30;7.33;;;;;;;;;;763202;183;634103;-69
2021/03/06 00:43:25;;;;;;;9.10;6.80;;;;;;;;;;758882;183;634831;-70
2021/03/06 00:45:50;;;;;;;14.10;6.00;;;;;;;;;;770151;183;618005;-69
2021/03/06 00:48:16;;;;;;;14.03;7.20;;;;;;;;;;764980;183;629035;-69
2021/03/06 00:50:42;;;;;;;11.97;7.40;;;;;;;;;;763022;183;628854;-70
2021/03/06 00:53:08;;;;;;;15.57;7.40;;;;;;;;;;768236;183;638223;-70
2021/03/06 00:55:34;;;;;;;11.77;7.10;;;;;;;;;;766355;183;639412;-70
2021/03/06 00:58:00;;;;;;;11.70;7.17;;;;;;;;;;764716;183;663366;-70
2021/03/06 01:00:25;;;;;;;9.33;5.37;;;;;;;;;;761438;183;629776;-70
2021/03/06 01:02:51;;;;;;;11.90;6.90;;;;;;;;;;768218;183;618425;-70
2021/03/06 01:05:17;;;;;;;12.70;6.87;;;;;;;;;;761339;183;629669;-70
2021/03/06 01:07:43;;;;;;;9.67;5.80;;;;;;;;;;764383;183;627342;-70
2021/03/06 01:10:10;;;;;;;8.20;6.40;;;;;;;;;;769515;182;641923;-70
2021/03/06 01:12:36;;;;;;;11.33;7.03;;;;;;;;;;767768;182;630376;-69
2021/03/06 01:15:02;;;;;;;11.30;7.07;;;;;;;;;;766761;182;624082;-70
2021/03/06 01:17:28;;;;;;;13.90;8.10;;;;;;;;;;768558;182;634806;-70
2021/03/06 01:19:54;;;;;;;14.27;9.20;;;;;;;;;;767608;183;629796;-69
2021/03/06 01:22:19;;;;;;;18.70;11.70;;;;;;;;;;764512;183;616937;-70
2021/03/06 01:24:45;;;;;;;15.70;10.43;;;;;;;;;;764898;183;641521;-69
2021/03/06 01:27:11;;;;;;;13.17;7.93;;;;;;;;;;766942;183;627628;-70
2021/03/06 01:29:37;;;;;;;18.83;10.20;;;;;;;;;;766028;183;618698;-70
2021/03/06 01:32:03;;;;;;;14.63;9.67;;;;;;;;;;766301;183;621168;-71
2021/03/06 01:34:29;;;;;;;22.23;10.30;;;;;;;;;;766095;183;630863;-70
2021/03/06 01:36:56;;;;;;;19.10;11.87;;;;;;;;;;765607;183;788821;-70
2021/03/06 01:39:20;;;;;;;20.03;11.30;;;;;;;;;;764242;182;656320;-70
2021/03/06 01:41:46;;;;;;;20.67;10.80;;;;;;;;;;768075;183;625324;-70
2021/03/06 01:44:12;;;;;;;20.10;11.83;;;;;;;;;;765729;183;628524;-70
2021/03/06 01:46:38;;;;;;;16.10;10.90;;;;;;;;;;762732;183;628243;-69
2021/03/06 01:49:04;;;;;;;23.23;11.27;;;;;;;;;;761814;183;632512;-70
2021/03/06 01:51:30;;;;;;;19.13;11.53;;;;;;;;;;759829;183;635650;-69
2021/03/06 01:53:55;;;;;;;18.90;10.30;;;;;;;;;;761205;183;627297;-70
2021/03/06 01:56:21;;;;;;;14.90;10.23;;;;;;;;;;761628;183;629870;-70
2021/03/06 01:58:47;;;;;;;15.53;10.20;;;;;;;;;;766456;183;636896;-70
2021/03/06 02:01:13;;;;;;;16.00;10.50;;;;;;;;;;762051;183;640071;-70
2021/03/06 02:03:39;;;;;;;15.90;9.40;;;;;;;;;;762592;183;627313;-70
2021/03/06 02:06:05;;;;;;;16.33;10.43;;;;;;;;;;764733;183;620434;-69
2021/03/06 02:08:31;;;;;;;16.30;11.27;;;;;;;;;;763543;183;631104;-70
2021/03/06 02:10:56;;;;;;;16.23;9.87;;;;;;;;;;759493;183;634308;-69
2021/03/06 02:13:22;;;;;;;21.40;11.53;;;;;;;;;;767032;180;622954;-70
2021/03/06 02:15:54;;;;;;;16.17;9.17;;;;;;;;;;762132;183;666667;-69
2021/03/06 02:18:31;;;;;;;14.27;8.70;;;;;;;;;;758125;183;626319;-70
2021/03/06 02:21:06;;;;;;;14.30;9.03;;;;;;;;;;767079;182;621021;-69
2021/03/06 02:23:38;;;;;;;12.27;9.07;;;;;;;;;;760451;182;628049;-69
2021/03/06 02:26:10;;;;;;;13.83;8.10;;;;;;;;;;762997;183;637037;-69
2021/03/06 02:28:36;;;;;;;14.53;10.27;;;;;;;;;;769509;180;618414;-69
2021/03/06 02:31:02;;;;;;;20.37;11.60;;;;;;;;;;767104;183;638222;-69
2021/03/06 02:33:28;;;;;;;26.13;11.53;;;;;;;;;;761320;183;624658;-69
2021/03/06 02:35:54;;;;;;;19.07;11.47;;;;;;;;;;767481;183;622222;-69
2021/03/06 02:38:20;;;;;;;21.97;13.00;;;;;;;;;;761693;183;628134;-69
2021/03/06 02:40:46;;;;;;;21.83;12.75;;;;;;;;;;764236;183;633527;-69
2021/03/06 02:43:11;;;;;;;16.97;11.13;;;;;;;;;;763522;183;645657;-68
2021/03/06 02:45:37;;;;;;;16.80;11.07;;;;;;;;;;768143;181;623605;-69
2021/03/06 02:48:03;;;;;;;22.73;13.10;;;;;;;;;;766144;183;673529;-69
2021/03/06 02:50:29;;;;;;;15.77;10.83;;;;;;;;;;765296;181;635197;-69
2021/03/06 02:52:55;;;;;;;16.80;11.27;;;;;;;;;;770464;183;631226;-70
2021/03/06 02:55:21;;;;;;;16.17;10.13;;;;;;;;;;761276;183;633761;-69
2021/03/06 02:57:53;;;;;;;13.80;9.70;;;;;;;;;;765784;183;628511;-69
2021/03/06 03:00:33;;;;;;;13.33;8.93;;;;;;;;;;764379;183;623711;-70
2021/03/06 03:03:05;;;;;;;14.83;9.63;;;;;;;;;;762063;183;628305;-69
2021/03/06 03:05:32;;;;;;;16.00;9.53;;;;;;;;;;770209;181;620200;-69
2021/03/06 03:07:58;;;;;;;15.03;9.20;;;;;;;;;;759031;183;625719;-69
2021/03/06 03:10:24;;;;;;;18.97;9.47;;;;;;;;;;760936;183;630081;-69
2021/03/06 03:12:51;;;;;;;17.40;10.33;;;;;;;;;;768974;183;638453;-69
2021/03/06 03:15:18;;;;;;;14.00;8.30;;;;;;;;;;763785;183;632959;-69
2021/03/06 03:17:44;;;;;;;11.67;8.13;;;;;;;;;;766928;184;632577;-68
2021/03/06 03:20:11;;;;;;;20.93;10.20;;;;;;;;;;760082;183;624037;-67
2021/03/06 03:22:37;;;;;;;15.03;8.97;;;;;;;;;;762034;183;634082;-69
2021/03/06 03:25:04;;;;;;;13.97;8.50;;;;;;;;;;766029;183;633110;-69
2021/03/06 03:27:30;;;;;;;13.87;8.30;;;;;;;;;;764686;182;628467;-69
2021/03/06 03:29:56;;;;;;;16.10;8.50;;;;;;;;;;769283;183;614611;-69
2021/03/06 03:32:22;;;;;;;14.77;8.70;;;;;;;;;;766008;183;615886;-68
2021/03/06 03:34:48;;;;;;;13.53;8.27;;;;;;;;;;766912;183;629412;-69
2021/03/06 03:37:13;;;;;;;17.37;9.63;;;;;;;;;;769169;183;626366;-69
2021/03/06 03:39:39;;;;;;;14.80;9.63;;;;;;;;;;763825;183;621476;-69
2021/03/06 03:42:05;;;;;;;17.80;9.03;;;;;;;;;;764708;183;630964;-68
2021/03/06 03:44:31;;;;;;;24.70;13.73;;;;;;;;;;770118;183;628387;-67
2021/03/06 03:46:57;;;;;;;16.40;10.27;;;;;;;;;;764324;181;632750;-69
2021/03/06 03:49:23;;;;;;;16.17;10.60;;;;;;;;;;768486;183;618698;-68
2021/03/06 03:51:49;;;;;;;22.80;10.23;;;;;;;;;;764641;183;631591;-68
2021/03/06 03:54:15;;;;;;;23.60;13.77;;;;;;;;;;765057;183;619680;-69
2021/03/06 03:56:41;;;;;;;31.30;17.70;;;;;;;;;;757725;183;648926;-69
2021/03/06 03:59:06;;;;;;;27.10;15.33;;;;;;;;;;765313;183;637044;-68
2021/03/06 04:01:47;;;;;;;20.27;12.13;;;;;;;;;;767154;183;744910;-69
2021/03/06 04:04:30;;;;;;;23.47;14.93;;;;;;;;;;770958;183;618627;-69
2021/03/06 04:06:56;;;;;;;17.70;12.93;;;;;;;;;;770796;181;625959;-68
2021/03/06 04:09:22;;;;;;;20.43;12.50;;;;;;;;;;765899;183;651140;-68
2021/03/06 04:11:47;;;;;;;23.47;11.17;;;;;;;;;;761712;183;616848;-68
2021/03/06 04:14:13;;;;;;;17.33;10.20;;;;;;;;;;763772;183;625724;-69
2021/03/06 04:16:39;;;;;;;16.97;9.10;;;;;;;;;;763757;183;632720;-68
2021/03/06 04:19:05;;;;;;;18.40;10.73;;;;;;;;;;763998;183;638510;-68
2021/03/06 04:21:31;;;;;;;16.77;11.10;;;;;;;;;;766537;180;624243;-68
2021/03/06 04:23:57;;;;;;;16.90;10.50;;;;;;;;;;756150;184;626805;-67
2021/03/06 04:26:22;;;;;;;18.10;10.53;;;;;;;;;;765865;183;677069;-68
2021/03/06 04:28:48;;;;;;;15.10;9.20;;;;;;;;;;759451;182;619338;-68
2021/03/06 04:31:14;;;;;;;16.10;8.87;;;;;;;;;;768310;183;616580;-68
2021/03/06 04:33:40;;;;;;;21.17;9.70;;;;;;;;;;764435;183;907392;-68
2021/03/06 04:36:06;;;;;;;16.07;10.67;;;;;;;;;;765894;183;624206;-67
2021/03/06 04:38:32;;;;;;;15.43;9.03;;;;;;;;;;763414;180;614160;-68
2021/03/06 04:40:58;;;;;;;17.80;9.00;;;;;;;;;;762010;183;641115;-68
2021/03/06 04:43:24;;;;;;;22.50;7.83;;;;;;;;;;764628;183;626204;-68
2021/03/06 04:45:49;;;;;;;17.20;10.17;;;;;;;;;;764094;183;622390;-68
2021/03/06 04:48:15;;;;;;;16.30;9.40;;;;;;;;;;766374;183;645244;-68
2021/03/06 04:50:41;;;;;;;15.17;7.93;;;;;;;;;;763287;183;620787;-67
2021/03/06 04:53:07;;;;;;;13.27;9.10;;;;;;;;;;764952;183;622779;-67
2021/03/06 04:55:33;;;;;;;16.50;9.70;;;;;;;;;;761552;183;618624;-68
2021/03/06 04:57:59;;;;;;;12.83;8.40;;;;;;;;;;763088;183;633339;-68
2021/03/06 05:00:25;;;;;;;16.40;8.03;;;;;;;;;;762140;183;627620;-68
2021/03/06 05:02:50;;;;;;;13.53;9.03;;;;;;;;;;769563;184;639481;-67
2021/03/06 05:05:16;;;;;;;15.00;9.17;;;;;;;;;;764429;183;680097;-67
2021/03/06 05:07:42;;;;;;;13.03;8.63;;;;;;;;;;765079;183;628911;-67
2021/03/06 05:10:08;;;;;;;20.03;8.80;;;;;;;;;;766076;183;623012;-68
2021/03/06 05:12:34;;;;;;;11.83;8.17;;;;;;;;;;759567;183;617733;-68
2021/03/06 05:15:00;;;;;;;12.77;9.23;;;;;;;;;;761224;181;628659;-68
2021/03/06 05:17:26;;;;;;;15.45;8.32;;;;;;;;;;765578;184;625622;-67
2021/03/06 05:19:53;;;;;;;11.80;7.37;;;;;;;;;;758167;184;623066;-67
2021/03/06 05:22:18;;;;;;;15.00;8.17;;;;;;;;;;737643;187;668367;-67
2021/03/06 05:24:45;;;;;;;13.90;8.57;;;;;;;;;;759683;183;636936;-67
2021/03/06 05:27:10;;;;;;;11.70;7.30;;;;;;;;;;756387;183;631556;-67
2021/03/06 05:29:36;;;;;;;12.07;7.93;;;;;;;;;;746376;186;621800;-67
2021/03/06 05:32:02;;;;;;;19.07;8.87;;;;;;;;;;732185;190;618558;-68
2021/03/06 05:34:28;;;;;;;12.77;8.57;;;;;;;;;;767854;180;627626;-67
2021/03/06 05:36:53;;;;;;;16.03;9.30;;;;;;;;;;759871;180;629562;-67
2021/03/06 05:39:19;;;;;;;13.43;8.80;;;;;;;;;;758893;183;658473;-67
2021/03/06 05:41:45;;;;;;;13.33;8.83;;;;;;;;;;768137;182;620699;-67
2021/03/06 05:44:11;;;;;;;15.13;8.70;;;;;;;;;;765256;183;627454;-67
2021/03/06 05:46:37;;;;;;;14.60;9.67;;;;;;;;;;759942;183;838354;-68
2021/03/06 05:49:03;;;;;;;17.87;9.07;;;;;;;;;;762837;183;636657;-67
2021/03/06 05:51:29;;;;;;;21.40;11.00;;;;;;;;;;767993;183;658451;-67
2021/03/06 05:53:54;;;;;;;13.90;9.60;;;;;;;;;;761074;183;654400;-67
2021/03/06 05:56:20;;;;;;;16.13;9.10;;;;;;;;;;764189;182;625056;-67
2021/03/06 05:58:46;;;;;;;16.10;9.53;;;;;;;;;;767763;183;618370;-67
2021/03/06 06:01:12;;;;;;;15.30;9.90;;;;;;;;;;763374;183;630377;-67
2021/03/06 06:03:38;;;;;;;17.17;10.40;;;;;;;;;;765241;183;641020;-67
2021/03/06 06:06:04;;;;;;;22.90;11.97;;;;;;;;;;770845;183;627723;-67
2021/03/06 06:08:32;;;;;;;17.93;11.20;;;;;;;;;;761166;183;630244;-68
2021/03/06 06:10:55;;;;;;;17.80;11.30;;;;;;;;;;761208;183;653320;-66
2021/03/06 06:13:22;;;;;;;21.23;11.33;;;;;;;;;;765635;180;630120;-67
2021/03/06 06:15:47;;;;;;;21.60;12.67;;;;;;;;;;763739;181;633574;-67
2021/03/06 06:18:13;;;;;;;24.97;14.67;;;;;;;;;;766544;183;625994;-67
2021/03/06 06:20:39;;;;;;;23.40;15.07;;;;;;;;;;765320;183;623091;-67
2021/03/06 06:23:09;;;;;;;22.43;15.00;;;;;;;;;;764141;183;676604;-66
2021/03/06 06:25:34;;;;;;;33.13;14.50;;;;;;;;;;759357;183;1146305;-67
2021/03/06 06:28:00;;;;;;;23.03;14.70;;;;;;;;;;763105;183;628516;-67
2021/03/06 06:30:26;;;;;;;28.40;15.17;;;;;;;;;;765695;183;623080;-68
2021/03/06 06:32:52;;;;;;;32.50;17.13;;;;;;;;;;761192;180;639664;-68
2021/03/06 06:35:18;;;;;;;29.37;17.43;;;;;;;;;;761526;183;618606;-69
2021/03/06 06:37:49;;;;;;;31.20;18.93;;;;;;;;;;760567;183;637033;-68
2021/03/06 06:40:16;;;;;;;28.10;14.40;;;;;;;;;;769652;183;620928;-70
2021/03/06 06:42:42;;;;;;;23.80;14.90;;;;;;;;;;766902;183;619209;-71
2021/03/06 06:45:08;;;;;;;21.50;13.37;;;;;;;;;;763838;183;631898;-71
2021/03/06 06:47:34;;;;;;;18.63;13.40;;;;;;;;;;764720;183;620122;-72
2021/03/06 06:50:00;;;;;;;23.80;13.90;;;;;;;;;;762447;183;627273;-70
2021/03/06 06:52:26;;;;;;;19.52;12.35;;;;;;;;;;765185;183;627211;-72
2021/03/06 06:54:52;;;;;;;22.13;12.13;;;;;;;;;;757856;183;629749;-69
2021/03/06 06:57:17;;;;;;;23.83;12.33;;;;;;;;;;760837;180;641382;-69
2021/03/06 06:59:49;;;;;;;21.80;12.87;;;;;;;;;;765642;183;630836;-69
2021/03/06 07:02:15;;;;;;;17.87;11.70;;;;;;;;;;763034;183;629170;-69
2021/03/06 07:04:57;;;;;;;17.50;13.63;;;;;;;;;;768596;183;632544;-68
2021/03/06 07:07:22;;;;;;;18.00;13.00;;;;;;;;;;772105;180;627929;-67
2021/03/06 07:09:53;;;;;;;20.77;11.37;;;;;;;;;;763975;181;632865;-67
2021/03/06 07:12:19;;;;;;;26.50;13.47;;;;;;;;;;764726;183;629520;-67
2021/03/06 07:14:45;;;;;;;24.67;13.47;;;;;;;;;;765404;183;623883;-67
2021/03/06 07:17:11;;;;;;;20.67;13.00;;;;;;;;;;764737;183;620293;-66
2021/03/06 07:19:37;;;;;;;28.70;15.10;;;;;;;;;;761806;183;649703;-66
2021/03/06 07:22:02;;;;;;;26.20;16.50;;;;;;;;;;762286;183;646824;-67
2021/03/06 07:24:28;;;;;;;23.27;13.10;;;;;;;;;;769221;183;628806;-67
2021/03/06 07:26:54;;;;;;;22.67;12.97;;;;;;;;;;762060;183;635233;-66
2021/03/06 07:29:20;;;;;;;27.10;15.00;;;;;;;;;;761079;183;618379;-67
2021/03/06 07:31:46;;;;;;;22.17;13.07;;;;;;;;;;763732;183;621751;-67
2021/03/06 07:34:12;;;;;;;22.77;13.50;;;;;;;;;;759203;183;634672;-67
2021/03/06 07:36:38;;;;;;;24.63;13.00;;;;;;;;;;764612;183;675821;-67
2021/03/06 07:39:04;;;;;;;20.80;12.68;;;;;;;;;;765168;183;638026;-67
2021/03/06 07:41:29;;;;;;;23.33;14.13;;;;;;;;;;764585;181;619195;-68
2021/03/06 07:43:55;;;;;;;19.00;11.23;;;;;;;;;;764983;183;625963;-68
2021/03/06 07:46:21;;;;;;;20.00;11.87;;;;;;;;;;762774;183;631671;-68
2021/03/06 07:48:47;;;;;;;17.77;10.57;;;;;;;;;;764971;183;636073;-69
2021/03/06 07:51:13;;;;;;;23.27;11.97;;;;;;;;;;759201;183;646015;-69
2021/03/06 07:53:39;;;;;;;15.30;8.63;;;;;;;;;;760235;183;649422;-69
2021/03/06 07:56:05;;;;;;;15.67;10.47;;;;;;;;;;764155;183;633585;-68
2021/03/06 07:58:31;;;;;;;17.93;8.83;;;;;;;;;;763509;183;627504;-69
2021/03/06 08:00:57;;;;;;;14.83;9.37;;;;;;;;;;760500;183;624707;-69
2021/03/06 08:03:27;;;;;;;22.40;11.70;;;;;;;;;;766785;183;618529;-68
2021/03/06 08:05:53;;;;;;;16.03;10.23;;;;;;;;;;769313;180;616614;-70
2021/03/06 08:08:24;;;;;;;27.03;13.33;;;;;;;;;;765142;183;622155;-69
2021/03/06 08:11:05;;;;;;;21.10;11.40;;;;;;;;;;760477;183;639472;-68
2021/03/06 08:13:32;;;;;;;15.00;9.43;;;;;;;;;;762091;183;620066;-68
2021/03/06 08:15:58;;;;;;;18.57;10.53;;;;;;;;;;763860;183;631369;-66
2021/03/06 08:18:30;;;;;;;15.82;10.32;;;;;;;;;;765753;183;633806;-69
2021/03/06 08:20:56;;;;;;;19.50;9.37;;;;;;;;;;767509;182;622149;-68
2021/03/06 08:23:22;;;;;;;22.83;11.37;;;;;;;;;;761386;183;653863;-67
2021/03/06 08:25:48;;;;;;;13.90;9.70;;;;;;;;;;768412;183;617630;-66
2021/03/06 08:28:21;;;;;;;17.67;10.60;;;;;;;;;;763575;183;629221;-70
2021/03/06 08:30:47;;;;;;;20.97;12.20;;;;;;;;;;761847;183;625411;-67
2021/03/06 08:33:16;;;;;;;15.63;9.23;;;;;;;;;;759795;183;636536;-67
2021/03/06 08:35:42;;;;;;;19.87;10.77;;;;;;;;;;772172;181;623865;-66
2021/03/06 08:38:28;;;;;;;19.87;10.20;;;;;;;;;;765606;183;627325;-65
2021/03/06 08:41:01;;;;;;;18.85;11.15;;;;;;;;;;781115;170;813040;-66
2021/03/06 08:43:27;;;;;;;14.07;9.60;;;;;;;;;;760505;183;633608;-66
2021/03/06 08:45:52;;;;;;;16.80;10.40;;;;;;;;;;758232;184;657482;-65
2021/03/06 08:48:18;;;;;;;15.67;9.13;;;;;;;;;;762353;184;617285;-65
2021/03/06 08:50:44;;;;;;;15.30;10.23;;;;;;;;;;770791;182;641268;-64
2021/03/06 08:53:12;;;;;;;24.90;10.47;;;;;;;;;;769134;182;776333;-64
2021/03/06 08:55:40;;;;;;;15.47;8.80;;;;;;;;;;775332;182;639186;-64
2021/03/06 08:58:04;;;;;;;14.97;8.90;;;;;;;;;;769756;182;628902;-64
2021/03/06 09:00:32;;;;;;;16.20;8.13;;;;;;;;;;770128;182;618481;-64
2021/03/06 09:02:58;;;;;;;14.48;9.40;;;;;;;;;;771835;183;640030;-62
2021/03/06 09:05:24;;;;;;;12.00;7.90;;;;;;;;;;772945;181;623292;-62
2021/03/06 09:07:51;;;;;;;14.73;7.83;;;;;;;;;;769696;182;623665;-64
2021/03/06 09:10:32;;;;;;;11.60;7.17;;;;;;;;;;770989;182;638024;-62
2021/03/06 09:12:58;;;;;;;12.40;6.33;;;;;;;;;;770675;181;624652;-61
2021/03/06 09:15:24;;;;;;;12.57;7.37;;;;;;;;;;773856;183;633074;-62
2021/03/06 09:17:50;;;;;;;20.57;7.77;;;;;;;;;;769955;182;656472;-62
2021/03/06 09:20:16;;;;;;;14.43;8.13;;;;;;;;;;769886;182;627831;-63
2021/03/06 09:22:41;;;;;;;10.67;6.40;;;;;;;;;;773957;182;614609;-63
2021/03/06 09:25:07;;;;;;;11.87;8.00;;;;;;;;;;769585;183;628594;-63
2021/03/06 09:27:39;;;;;;;9.40;7.30;;;;;;;;;;769850;182;618891;-64
2021/03/06 09:30:05;;;;;;;14.03;7.73;;;;;;;;;;766275;182;1091726;-63
2021/03/06 09:32:31;;;;;;;11.00;7.27;;;;;;;;;;761333;183;628463;-64
2021/03/06 09:34:57;;;;;;;17.30;9.87;;;;;;;;;;769029;182;630125;-64
2021/03/06 09:37:23;;;;;;;21.50;8.37;;;;;;;;;;770624;182;627489;-64
2021/03/06 09:39:49;;;;;;;13.70;9.17;;;;;;;;;;772819;182;622737;-66
2021/03/06 09:42:15;;;;;;;11.50;7.17;;;;;;;;;;769758;182;618628;-64
2021/03/06 09:44:41;;;;;;;18.73;7.80;;;;;;;;;;769598;182;629420;-66
2021/03/06 09:47:07;;;;;;;9.00;5.77;;;;;;;;;;774303;182;627964;-65
2021/03/06 09:49:34;;;;;;;11.37;7.07;;;;;;;;;;769693;182;620842;-64
2021/03/06 09:51:59;;;;;;;13.60;7.67;;;;;;;;;;771626;181;629679;-64
2021/03/06 09:54:25;;;;;;;20.20;8.07;;;;;;;;;;771918;182;637523;-64
2021/03/06 09:56:51;;;;;;;13.43;7.20;;;;;;;;;;775685;182;633094;-64
2021/03/06 09:59:17;;;;;;;22.37;7.77;;;;;;;;;;772313;182;619851;-65
2021/03/06 10:01:43;;;;;;;17.90;9.97;;;;;;;;;;770598;182;636182;-64
2021/03/06 10:04:12;;;;;;;14.37;8.00;;;;;;;;;;775854;182;622760;-64
2021/03/06 10:06:37;;;;;;;11.53;7.67;;;;;;;;;;771461;182;620598;-65
2021/03/06 10:09:03;;;;;;;14.90;9.40;;;;;;;;;;770707;182;632819;-66
2021/03/06 10:11:29;;;;;;;14.43;7.53;;;;;;;;;;773946;182;625794;-64
2021/03/06 10:13:55;;;;;;;12.30;7.87;;;;;;;;;;770181;182;627139;-64
2021/03/06 10:16:21;;;;;;;9.20;5.80;;;;;;;;;;770216;182;634662;-66
2021/03/06 10:18:47;;;;;;;9.60;5.60;;;;;;;;;;770304;182;618610;-64
2021/03/06 10:21:13;;;;;;;10.80;6.33;;;;;;;;;;774862;182;623710;-64
2021/03/06 10:23:38;;;;;;;6.33;4.43;;;;;;;;;;770324;182;643336;-64
2021/03/06 10:26:10;;;;;;;10.00;5.80;;;;;;;;;;770465;182;628301;-64
2021/03/06 10:28:36;;;;;;;5.63;4.87;;;;;;;;;;775965;182;623133;-63
2021/03/06 10:31:02;;;;;;;20.67;5.40;;;;;;;;;;769911;182;637155;-63
2021/03/06 10:33:28;;;;;;;9.60;5.57;;;;;;;;;;768692;182;650768;-64
2021/03/06 10:35:56;;;;;;;9.97;5.27;;;;;;;;;;770064;182;623674;-64
2021/03/06 10:38:28;;;;;;;7.90;5.23;;;;;;;;;;773646;181;642550;-64
2021/03/06 10:40:54;;;;;;;6.50;4.10;;;;;;;;;;769331;182;648402;-64
2021/03/06 10:43:26;;;;;;;6.90;3.50;;;;;;;;;;769834;183;628249;-64
2021/03/06 10:45:52;;;;;;;5.40;4.27;;;;;;;;;;769712;182;628132;-62
2021/03/06 10:48:28;;;;;;;6.20;4.00;;;;;;;;;;774420;182;643299;-63
2021/03/06 10:50:54;;;;;;;6.77;3.83;;;;;;;;;;769819;183;633083;-63
2021/03/06 10:53:20;;;;;;;11.83;5.03;;;;;;;;;;768178;182;638015;-63
2021/03/06 10:55:46;;;;;;;5.80;3.57;;;;;;;;;;770620;183;629236;-62
2021/03/06 10:58:12;;;;;;;7.13;3.50;;;;;;;;;;771588;182;636009;-63
2021/03/06 11:00:37;;;;;;;5.27;3.70;;;;;;;;;;768161;182;623490;-64
2021/03/06 11:03:04;;;;;;;5.33;3.60;;;;;;;;;;771698;182;630205;-61
2021/03/06 11:05:29;;;;;;;9.47;3.80;;;;;;;;;;777260;182;630470;-61
2021/03/06 11:07:57;;;;;;;9.60;4.47;;;;;;;;;;772404;182;621730;-63
2021/03/06 11:10:21;;;;;;;5.47;2.80;;;;;;;;;;772090;182;633050;-63
2021/03/06 11:12:49;;;;;;;6.03;3.57;;;;;;;;;;774357;179;639987;-63
2021/03/06 11:15:15;;;;;;;9.37;4.27;;;;;;;;;;770384;182;634455;-62
2021/03/06 11:17:41;;;;;;;10.17;4.20;;;;;;;;;;770074;183;653300;-62
2021/03/06 11:20:07;;;;;;;6.47;4.40;;;;;;;;;;770879;183;630666;-63
2021/03/06 11:22:33;;;;;;;7.97;5.57;;;;;;;;;;774052;182;632558;-62
2021/03/06 11:24:59;;;;;;;10.70;5.90;;;;;;;;;;770569;182;661142;-62
2021/03/06 11:27:25;;;;;;;10.00;5.90;;;;;;;;;;771413;182;654919;-62
2021/03/06 11:29:51;;;;;;;9.23;6.50;;;;;;;;;;773828;182;616216;-62
2021/03/06 11:32:20;;;;;;;8.30;5.53;;;;;;;;;;768618;180;626188;-62
2021/03/06 11:34:43;;;;;;;8.70;5.23;;;;;;;;;;769053;182;649288;-62
2021/03/06 11:37:09;;;;;;;8.87;5.80;;;;;;;;;;775321;182;640697;-62
2021/03/06 11:39:34;;;;;;;10.57;7.10;;;;;;;;;;768693;182;629734;-62
2021/03/06 11:42:00;;;;;;;11.53;4.73;;;;;;;;;;768533;181;628509;-62
2021/03/06 11:44:26;;;;;;;8.73;5.10;;;;;;;;;;770620;182;637267;-61
2021/03/06 11:46:52;;;;;;;7.63;5.80;;;;;;;;;;773677;180;618473;-61
2021/03/06 11:49:18;;;;;;;11.93;5.22;;;;;;;;;;763949;183;1446637;-62
2021/03/06 11:51:44;;;;;;;8.80;5.40;;;;;;;;;;770033;180;627763;-61
2021/03/06 11:54:09;;;;;;;8.80;5.77;;;;;;;;;;773465;182;625064;-62
2021/03/06 11:56:35;;;;;;;7.50;5.60;;;;;;;;;;771229;182;633957;-63
2021/03/06 11:59:01;;;;;;;8.57;5.82;;;;;;;;;;768552;182;635538;-62
2021/03/06 12:01:27;;;;;;;6.57;3.97;;;;;;;;;;774821;182;621703;-62
2021/03/06 12:03:54;;;;;;;10.33;5.63;;;;;;;;;;768625;182;630288;-63
2021/03/06 12:06:19;;;;;;;8.23;5.67;;;;;;;;;;769102;183;636921;-62
2021/03/06 12:08:46;;;;;;;7.90;5.53;;;;;;;;;;772944;182;639602;-62
2021/03/06 12:11:11;;;;;;;5.83;4.50;;;;;;;;;;770224;182;625744;-63
2021/03/06 12:13:36;;;;;;;6.90;4.00;;;;;;;;;;768494;181;641798;-62
2021/03/06 12:16:02;;;;;;;6.30;4.80;;;;;;;;;;772381;182;619408;-62
2021/03/06 12:18:28;;;;;;;6.90;5.00;;;;;;;;;;776100;182;674121;-63
2021/03/06 12:20:54;;;;;;;10.00;5.60;;;;;;;;;;771454;182;613615;-63
2021/03/06 12:23:20;;;;;;;9.82;5.35;;;;;;;;;;771438;182;642706;-62
2021/03/06 12:25:46;;;;;;;7.53;4.97;;;;;;;;;;775618;183;618195;-62
2021/03/06 12:28:12;;;;;;;8.53;4.40;;;;;;;;;;770142;182;622279;-62
2021/03/06 12:30:38;;;;;;;7.00;4.90;;;;;;;;;;771772;182;618666;-63
2021/03/06 12:33:03;;;;;;;9.43;5.13;;;;;;;;;;773933;182;629687;-63
2021/03/06 12:35:29;;;;;;;8.53;5.83;;;;;;;;;;768790;182;633055;-64
2021/03/06 12:37:55;;;;;;;8.13;5.27;;;;;;;;;;770763;182;664637;-63
2021/03/06 12:40:21;;;;;;;6.60;5.27;;;;;;;;;;769424;182;637275;-63
2021/03/06 12:42:47;;;;;;;10.27;5.73;;;;;;;;;;774180;180;627770;-64
2021/03/06 12:45:13;;;;;;;6.07;4.87;;;;;;;;;;769566;182;654101;-64
2021/03/06 12:47:39;;;;;;;7.23;5.47;;;;;;;;;;768735;181;635262;-63
2021/03/06 12:50:05;;;;;;;8.40;5.90;;;;;;;;;;773425;183;666096;-64
2021/03/06 12:52:31;;;;;;;8.10;5.33;;;;;;;;;;766791;183;643175;-63
2021/03/06 12:54:57;;;;;;;6.20;5.13;;;;;;;;;;768565;182;633952;-65
2021/03/06 12:57:22;;;;;;;5.70;4.77;;;;;;;;;;774108;182;618577;-63
2021/03/06 12:59:48;;;;;;;8.27;6.30;;;;;;;;;;768211;182;654890;-63
2021/03/06 13:02:14;;;;;;;7.90;5.73;;;;;;;;;;767271;182;636651;-64
2021/03/06 13:04:40;;;;;;;6.20;4.60;;;;;;;;;;773220;182;651337;-63
2021/03/06 13:07:06;;;;;;;8.53;6.40;;;;;;;;;;769262;179;660774;-63
2021/03/06 13:09:32;;;;;;;5.90;4.67;;;;;;;;;;769767;182;628308;-63
2021/03/06 13:11:58;;;;;;;9.80;5.70;;;;;;;;;;770966;180;635055;-63
2021/03/06 13:14:23;;;;;;;7.23;5.60;;;;;;;;;;772917;182;626850;-64
2021/03/06 13:16:49;;;;;;;5.97;5.03;;;;;;;;;;769067;182;623301;-64
2021/03/06 13:19:15;;;;;;;9.97;5.23;;;;;;;;;;768249;182;630232;-63
2021/03/06 13:21:41;;;;;;;6.80;4.80;;;;;;;;;;773952;181;614658;-64
2021/03/06 13:24:07;;;;;;;8.23;5.23;;;;;;;;;;770870;182;634647;-65
2021/03/06 13:26:33;;;;;;;8.27;5.10;;;;;;;;;;771694;181;641487;-68
2021/03/06 13:28:59;;;;;;;8.50;5.23;;;;;;;;;;770977;182;779209;-64
2021/03/06 13:31:25;;;;;;;9.07;5.00;;;;;;;;;;770665;182;618506;-63
2021/03/06 13:33:51;;;;;;;8.20;5.10;;;;;;;;;;770408;182;634805;-63
2021/03/06 13:36:16;;;;;;;9.33;4.77;;;;;;;;;;770831;182;630763;-63
2021/03/06 13:38:42;;;;;;;11.23;5.33;;;;;;;;;;771791;182;632652;-64
2021/03/06 13:41:08;;;;;;;6.80;4.20;;;;;;;;;;769479;182;804658;-63
2021/03/06 13:43:34;;;;;;;9.40;4.93;;;;;;;;;;772004;182;628571;-64
2021/03/06 13:46:00;;;;;;;6.40;3.93;;;;;;;;;;774605;182;632981;-63
2021/03/06 13:48:26;;;;;;;10.20;4.60;;;;;;;;;;771526;182;627242;-63
2021/03/06 13:50:51;;;;;;;6.53;4.32;;;;;;;;;;770145;182;627793;-64
2021/03/06 13:53:17;;;;;;;7.37;5.00;;;;;;;;;;774063;179;617361;-63
2021/03/06 13:55:43;;;;;;;10.67;4.10;;;;;;;;;;770459;182;632754;-65
2021/03/06 13:58:09;;;;;;;6.07;3.53;;;;;;;;;;771125;182;629531;-63
2021/03/06 14:00:35;;;;;;;4.13;2.87;;;;;;;;;;773881;182;616004;-63
2021/03/06 14:03:01;;;;;;;5.80;3.77;;;;;;;;;;769225;179;639837;-63
2021/03/06 14:05:27;;;;;;;6.53;4.03;;;;;;;;;;769955;182;622886;-63
2021/03/06 14:07:52;;;;;;;5.53;4.33;;;;;;;;;;769224;181;675226;-63
2021/03/06 14:10:19;;;;;;;6.17;3.50;;;;;;;;;;772760;183;630994;-65
2021/03/06 14:12:44;;;;;;;7.53;3.77;;;;;;;;;;770602;183;629001;-63